Aviation Digital Data Service (ADDS)

Output produced by METARs form (0917 UTC 19 April 2019)
found at http://www.aviationweather.gov/metar/data/
 
METAR text: KSBA 190901Z AUTO 14005KT 3SM BR OVC002 13/12 A3002 RMK AO2 T01280122
Conditions at: KSBA (SANTA BARBARA , CA, US) observed 0901 UTC 19 April 2019
Temperature: 12.8°C (55°F)
Dewpoint: 12.2°C (54°F) [RH = 96%]
Pressure (altimeter): 30.02 inches Hg (1016.7 mb)
Winds: from the SE (140 degrees) at 6 MPH (5 knots; 2.6 m/s)
Visibility: 3 miles ( 5 km)
Ceiling: 200 feet AGL
Clouds: overcast cloud deck at 200 feet AGL
Weather: BR  (mist)

METAR text: KSBA 190853Z AUTO 16006KT 1 1/2SM BR OVC002 13/12 A3001 RMK AO2 SLP162 T01280122 58004
Conditions at: KSBA (SANTA BARBARA , CA, US) observed 0853 UTC 19 April 2019
Temperature: 12.8°C (55°F)
Dewpoint: 12.2°C (54°F) [RH = 96%]
Pressure (altimeter): 30.01 inches Hg (1016.3 mb)
[Sea-level pressure: 1016.2 mb]
Winds: from the SSE (160 degrees) at 7 MPH (6 knots; 3.1 m/s)
Visibility: 1.50 miles (2.41 km)
Ceiling: 200 feet AGL
Clouds: overcast cloud deck at 200 feet AGL
Weather: BR  (mist)

METAR text: KSBA 190841Z AUTO 16006KT 1 1/4SM BR OVC002 13/13 A3001 RMK AO2 T01280128
Conditions at: KSBA (SANTA BARBARA , CA, US) observed 0841 UTC 19 April 2019
Temperature: 12.8°C (55°F)
Dewpoint: 12.8°C (55°F) [RH = 100%]
Pressure (altimeter): 30.01 inches Hg (1016.3 mb)
Winds: from the SSE (160 degrees) at 7 MPH (6 knots; 3.1 m/s)
Visibility: 1.25 miles (2.01 km)
Ceiling: 200 feet AGL
Clouds: overcast cloud deck at 200 feet AGL
Weather: BR  (mist)

METAR text: KSBA 190827Z AUTO 11004KT 2 1/2SM BR OVC002 13/13 A3001 RMK AO2 T01280128
Conditions at: KSBA (SANTA BARBARA , CA, US) observed 0827 UTC 19 April 2019
Temperature: 12.8°C (55°F)
Dewpoint: 12.8°C (55°F) [RH = 100%]
Pressure (altimeter): 30.01 inches Hg (1016.3 mb)
Winds: from the ESE (110 degrees) at 5 MPH (4 knots; 2.1 m/s)
Visibility: 2.50 miles (4.02 km)
Ceiling: 200 feet AGL
Clouds: overcast cloud deck at 200 feet AGL
Weather: BR  (mist)

METAR text: KSBA 190817Z AUTO 07003KT 1 3/4SM BR OVC002 13/13 A3001 RMK AO2 T01280128
Conditions at: KSBA (SANTA BARBARA , CA, US) observed 0817 UTC 19 April 2019
Temperature: 12.8°C (55°F)
Dewpoint: 12.8°C (55°F) [RH = 100%]
Pressure (altimeter): 30.01 inches Hg (1016.3 mb)
Winds: from the ENE (70 degrees) at 3 MPH (3 knots; 1.5 m/s)
Visibility: 1.75 miles (2.82 km)
Ceiling: 200 feet AGL
Clouds: overcast cloud deck at 200 feet AGL
Weather: BR  (mist)

METAR text: KSBA 190808Z AUTO 08003KT 2SM BR OVC002 13/13 A3002 RMK AO2 T01280128
Conditions at: KSBA (SANTA BARBARA , CA, US) observed 0808 UTC 19 April 2019
Temperature: 12.8°C (55°F)
Dewpoint: 12.8°C (55°F) [RH = 100%]
Pressure (altimeter): 30.02 inches Hg (1016.7 mb)
Winds: from the E (80 degrees) at 3 MPH (3 knots; 1.5 m/s)
Visibility: 2.00 miles (3.22 km)
Ceiling: 200 feet AGL
Clouds: overcast cloud deck at 200 feet AGL
Weather: BR  (mist)

METAR text: KSBA 190753Z AUTO 10003KT 1 1/2SM BR OVC002 13/13 A3002 RMK AO2 SLP166 T01280128 402280100
Conditions at: KSBA (SANTA BARBARA , CA, US) observed 0753 UTC 19 April 2019
Temperature: 12.8°C (55°F)
Dewpoint: 12.8°C (55°F) [RH = 100%]
Pressure (altimeter): 30.02 inches Hg (1016.7 mb)
[Sea-level pressure: 1016.6 mb]
Winds: from the E (100 degrees) at 3 MPH (3 knots; 1.5 m/s)
Visibility: 1.50 miles (2.41 km)
Ceiling: 200 feet AGL
Clouds: overcast cloud deck at 200 feet AGL
Weather: BR  (mist)

METAR text: KSBA 190716Z AUTO 18005KT 1 1/4SM BR OVC002 13/13 A3003 RMK AO2 T01280128
Conditions at: KSBA (SANTA BARBARA , CA, US) observed 0716 UTC 19 April 2019
Temperature: 12.8°C (55°F)
Dewpoint: 12.8°C (55°F) [RH = 100%]
Pressure (altimeter): 30.03 inches Hg (1017.0 mb)
Winds: from the S (180 degrees) at 6 MPH (5 knots; 2.6 m/s)
Visibility: 1.25 miles (2.01 km)
Ceiling: 200 feet AGL
Clouds: overcast cloud deck at 200 feet AGL
Weather: BR  (mist)

METAR text: KSBA 190653Z AUTO 18004KT 1/2SM FG VV002 12/12 A3002 RMK AO2 SLP166 T01220122 RVRNO
Conditions at: KSBA (SANTA BARBARA , CA, US) observed 0653 UTC 19 April 2019
Temperature: 12.2°C (54°F)
Dewpoint: 12.2°C (54°F) [RH = 100%]
Pressure (altimeter): 30.02 inches Hg (1016.7 mb)
[Sea-level pressure: 1016.6 mb]
Winds: from the S (180 degrees) at 5 MPH (4 knots; 2.1 m/s)
Visibility: 0.50 miles (0.80 km)
Ceiling: indefinite ceiling with vertical visibility of 200 feet AGL
Clouds: obscured sky
Weather: FG  (fog)

METAR text: KSBA 190635Z AUTO 00000KT 1/4SM FG VV002 13/12 A3002 RMK AO2 T01280122 RVRNO
Conditions at: KSBA (SANTA BARBARA , CA, US) observed 0635 UTC 19 April 2019
Temperature: 12.8°C (55°F)
Dewpoint: 12.2°C (54°F) [RH = 96%]
Pressure (altimeter): 30.02 inches Hg (1016.7 mb)
Winds: calm
Visibility: 0.25 miles (0.40 km)
Ceiling: indefinite ceiling with vertical visibility of 200 feet AGL
Clouds: obscured sky
Weather: FG  (fog)

METAR text: KSBA 190627Z AUTO 00000KT 1/2SM FG VV002 12/12 A3003 RMK AO2 T01220122 RVRNO
Conditions at: KSBA (SANTA BARBARA , CA, US) observed 0627 UTC 19 April 2019
Temperature: 12.2°C (54°F)
Dewpoint: 12.2°C (54°F) [RH = 100%]
Pressure (altimeter): 30.03 inches Hg (1017.0 mb)
Winds: calm
Visibility: 0.50 miles (0.80 km)
Ceiling: indefinite ceiling with vertical visibility of 200 feet AGL
Clouds: obscured sky
Weather: FG  (fog)

METAR text: KSBA 190620Z AUTO 21005KT 1SM BR VV003 12/12 A3003 RMK AO2 T01220117 RVRNO
Conditions at: KSBA (SANTA BARBARA , CA, US) observed 0620 UTC 19 April 2019
Temperature: 12.2°C (54°F)
Dewpoint: 11.7°C (53°F) [RH = 97%]
Pressure (altimeter): 30.03 inches Hg (1017.0 mb)
Winds: from the SSW (210 degrees) at 6 MPH (5 knots; 2.6 m/s)
Visibility: 1.00 miles (1.61 km)
Ceiling: indefinite ceiling with vertical visibility of 300 feet AGL
Clouds: obscured sky
Weather: BR  (mist)

METAR text: KSBA 190617Z AUTO 21005KT 2 1/2SM BR FEW005 12/12 A3003 RMK AO2 T01220117
Conditions at: KSBA (SANTA BARBARA , CA, US) observed 0617 UTC 19 April 2019
Temperature: 12.2°C (54°F)
Dewpoint: 11.7°C (53°F) [RH = 97%]
Pressure (altimeter): 30.03 inches Hg (1017.0 mb)
Winds: from the SSW (210 degrees) at 6 MPH (5 knots; 2.6 m/s)
Visibility: 2.50 miles (4.02 km)
Ceiling: at least 12,000 feet AGL
Clouds: few clouds at 500 feet AGL
Weather: BR  (mist)

METAR text: KSBA 190553Z AUTO 00000KT 10SM CLR 13/13 A3002 RMK AO2 SLP166 T01330128 10211 20133 51007
Conditions at: KSBA (SANTA BARBARA , CA, US) observed 0553 UTC 19 April 2019
Temperature: 13.3°C (56°F)
Dewpoint: 12.8°C (55°F) [RH = 97%]
Pressure (altimeter): 30.02 inches Hg (1016.7 mb)
[Sea-level pressure: 1016.6 mb]
Winds: calm
Visibility: 10 or more miles (16+ km)
Ceiling: at least 12,000 feet AGL
Clouds: sky clear below 12,000 feet AGL
Weather: automated observation with no human augmentation;
there may or may not be significant weather present at this time

METAR text: KSBA 190453Z 25003KT 10SM CLR 14/13 A3002 RMK AO2 SLP166 T01390128
Conditions at: KSBA (SANTA BARBARA , CA, US) observed 0453 UTC 19 April 2019
Temperature: 13.9°C (57°F)
Dewpoint: 12.8°C (55°F) [RH = 93%]
Pressure (altimeter): 30.02 inches Hg (1016.7 mb)
[Sea-level pressure: 1016.6 mb]
Winds: from the WSW (250 degrees) at 3 MPH (3 knots; 1.5 m/s)
Visibility: 10 or more miles (16+ km)
Ceiling: at least 12,000 feet AGL
Clouds: sky clear below 12,000 feet AGL
Weather: no significant weather observed at this time

METAR text: KSBA 190353Z 23003KT 10SM CLR 14/12 A3001 RMK AO2 SLP161 T01440117
Conditions at: KSBA (SANTA BARBARA , CA, US) observed 0353 UTC 19 April 2019
Temperature: 14.4°C (58°F)
Dewpoint: 11.7°C (53°F) [RH = 84%]
Pressure (altimeter): 30.01 inches Hg (1016.3 mb)
[Sea-level pressure: 1016.1 mb]
Winds: from the SW (230 degrees) at 3 MPH (3 knots; 1.5 m/s)
Visibility: 10 or more miles (16+ km)
Ceiling: at least 12,000 feet AGL
Clouds: sky clear below 12,000 feet AGL
Weather: no significant weather observed at this time

METAR text: KSBA 190253Z 25005KT 10SM CLR 16/12 A3000 RMK AO2 SLP159 T01610117 56007
Conditions at: KSBA (SANTA BARBARA , CA, US) observed 0253 UTC 19 April 2019
Temperature: 16.1°C (61°F)
Dewpoint: 11.7°C (53°F) [RH = 75%]
Pressure (altimeter): 30.00 inches Hg (1016.0 mb)
[Sea-level pressure: 1015.9 mb]
Winds: from the WSW (250 degrees) at 6 MPH (5 knots; 2.6 m/s)
Visibility: 10 or more miles (16+ km)
Ceiling: at least 12,000 feet AGL
Clouds: sky clear below 12,000 feet AGL
Weather: no significant weather observed at this time

METAR text: KSBA 190153Z 27010KT 10SM CLR 17/12 A3001 RMK AO2 SLP162 T01670117
Conditions at: KSBA (SANTA BARBARA , CA, US) observed 0153 UTC 19 April 2019
Temperature: 16.7°C (62°F)
Dewpoint: 11.7°C (53°F) [RH = 72%]
Pressure (altimeter): 30.01 inches Hg (1016.3 mb)
[Sea-level pressure: 1016.2 mb]
Winds: from the W (270 degrees) at 12 MPH (10 knots; 5.1 m/s)
Visibility: 10 or more miles (16+ km)
Ceiling: at least 12,000 feet AGL
Clouds: sky clear below 12,000 feet AGL
Weather: no significant weather observed at this time

METAR text: KSBA 190053Z 26008KT 10SM CLR 20/12 A3001 RMK AO2 SLP161 T02000117
Conditions at: KSBA (SANTA BARBARA , CA, US) observed 0053 UTC 19 April 2019
Temperature: 20.0°C (68°F)
Dewpoint: 11.7°C (53°F) [RH = 59%]
Pressure (altimeter): 30.01 inches Hg (1016.3 mb)
[Sea-level pressure: 1016.1 mb]
Winds: from the W (260 degrees) at 9 MPH (8 knots; 4.1 m/s)
Visibility: 10 or more miles (16+ km)
Ceiling: at least 12,000 feet AGL
Clouds: sky clear below 12,000 feet AGL
Weather: no significant weather observed at this time

METAR text: KSBA 182353Z 25008KT 10SM CLR 21/12 A3002 RMK AO2 SLP167 T02060122 10228 20183 58024
Conditions at: KSBA (SANTA BARBARA , CA, US) observed 2353 UTC 18 April 2019
Temperature: 20.6°C (69°F)
Dewpoint: 12.2°C (54°F) [RH = 59%]
Pressure (altimeter): 30.02 inches Hg (1016.7 mb)
[Sea-level pressure: 1016.7 mb]
Winds: from the WSW (250 degrees) at 9 MPH (8 knots; 4.1 m/s)
Visibility: 10 or more miles (16+ km)
Ceiling: at least 12,000 feet AGL
Clouds: sky clear below 12,000 feet AGL
Weather: no significant weather observed at this time

METAR text: KSBA 182253Z 26011KT 10SM CLR 19/12 A3005 RMK AO2 SLP176 T01940117
Conditions at: KSBA (SANTA BARBARA , CA, US) observed 2253 UTC 18 April 2019
Temperature: 19.4°C (67°F)
Dewpoint: 11.7°C (53°F) [RH = 61%]
Pressure (altimeter): 30.05 inches Hg (1017.7 mb)
[Sea-level pressure: 1017.6 mb]
Winds: from the W (260 degrees) at 13 MPH (11 knots; 5.7 m/s)
Visibility: 10 or more miles (16+ km)
Ceiling: at least 12,000 feet AGL
Clouds: sky clear below 12,000 feet AGL
Weather: no significant weather observed at this time

METAR text: KSBA 182153Z 26006KT 10SM CLR 22/12 A3007 RMK AO2 SLP182 T02220117
Conditions at: KSBA (SANTA BARBARA , CA, US) observed 2153 UTC 18 April 2019
Temperature: 22.2°C (72°F)
Dewpoint: 11.7°C (53°F) [RH = 51%]
Pressure (altimeter): 30.07 inches Hg (1018.4 mb)
[Sea-level pressure: 1018.2 mb]
Winds: from the W (260 degrees) at 7 MPH (6 knots; 3.1 m/s)
Visibility: 10 or more miles (16+ km)
Ceiling: at least 12,000 feet AGL
Clouds: sky clear below 12,000 feet AGL
Weather: no significant weather observed at this time

METAR text: KSBA 182053Z VRB03KT 10SM CLR 22/11 A3010 RMK AO2 SLP191 T02170111 58005
Conditions at: KSBA (SANTA BARBARA , CA, US) observed 2053 UTC 18 April 2019
Temperature: 21.7°C (71°F)
Dewpoint: 11.1°C (52°F) [RH = 51%]
Pressure (altimeter): 30.10 inches Hg (1019.4 mb)
[Sea-level pressure: 1019.1 mb]
Winds: variable direction winds at 3 MPH (3 knots; 1.5 m/s)
Visibility: 10 or more miles (16+ km)
Ceiling: at least 12,000 feet AGL
Clouds: sky clear below 12,000 feet AGL
Weather: no significant weather observed at this time

METAR text: KSBA 181953Z VRB03KT 10SM CLR 21/11 A3010 RMK AO2 SLP192 T02110111
Conditions at: KSBA (SANTA BARBARA , CA, US) observed 1953 UTC 18 April 2019
Temperature: 21.1°C (70°F)
Dewpoint: 11.1°C (52°F) [RH = 53%]
Pressure (altimeter): 30.10 inches Hg (1019.4 mb)
[Sea-level pressure: 1019.2 mb]
Winds: variable direction winds at 3 MPH (3 knots; 1.5 m/s)
Visibility: 10 or more miles (16+ km)
Ceiling: at least 12,000 feet AGL
Clouds: sky clear below 12,000 feet AGL
Weather: no significant weather observed at this time

METAR text: KSBA 181905Z 16005KT 10SM CLR 19/11 A3011 RMK AO2 T01940106
Conditions at: KSBA (SANTA BARBARA , CA, US) observed 1905 UTC 18 April 2019
Temperature: 19.4°C (67°F)
Dewpoint: 10.6°C (51°F) [RH = 57%]
Pressure (altimeter): 30.11 inches Hg (1019.7 mb)
Winds: from the SSE (160 degrees) at 6 MPH (5 knots; 2.6 m/s)
Visibility: 10 or more miles (16+ km)
Ceiling: at least 12,000 feet AGL
Clouds: sky clear below 12,000 feet AGL
Weather: no significant weather observed at this time

METAR text: KSBA 181853Z COR 16005KT 10SM CLR 19/11 A3012 RMK AO2 T01940106
Conditions at: KSBA (SANTA BARBARA , CA, US) observed 1853 UTC 18 April 2019
Temperature: 19.4°C (67°F)
Dewpoint: 10.6°C (51°F) [RH = 57%]
Pressure (altimeter): 30.12 inches Hg (1020.1 mb)
Winds: from the SSE (160 degrees) at 6 MPH (5 knots; 2.6 m/s)
Visibility: 10 or more miles (16+ km)
Ceiling: at least 12,000 feet AGL
Clouds: sky clear below 12,000 feet AGL
Weather: no significant weather observed at this time

METAR text: KSBA 181753Z 15007KT 10SM CLR 18/11 A3011 RMK AO2 SLP196 T01830106 10189 20100 50004
Conditions at: KSBA (SANTA BARBARA , CA, US) observed 1753 UTC 18 April 2019
Temperature: 18.3°C (65°F)
Dewpoint: 10.6°C (51°F) [RH = 61%]
Pressure (altimeter): 30.11 inches Hg (1019.7 mb)
[Sea-level pressure: 1019.6 mb]
Winds: from the SSE (150 degrees) at 8 MPH (7 knots; 3.6 m/s)
Visibility: 10 or more miles (16+ km)
Ceiling: at least 12,000 feet AGL
Clouds: sky clear below 12,000 feet AGL
Weather: no significant weather observed at this time

METAR text: KSBA 181653Z 14004KT 10SM CLR 18/11 A3012 RMK AO2 SLP198 T01830111
Conditions at: KSBA (SANTA BARBARA , CA, US) observed 1653 UTC 18 April 2019
Temperature: 18.3°C (65°F)
Dewpoint: 11.1°C (52°F) [RH = 63%]
Pressure (altimeter): 30.12 inches Hg (1020.1 mb)
[Sea-level pressure: 1019.8 mb]
Winds: from the SE (140 degrees) at 5 MPH (4 knots; 2.1 m/s)
Visibility: 10 or more miles (16+ km)
Ceiling: at least 12,000 feet AGL
Clouds: sky clear below 12,000 feet AGL
Weather: no significant weather observed at this time

METAR text: KSBA 181553Z 14003KT 10SM CLR 16/12 A3012 RMK AO2 SLP199 T01560117
Conditions at: KSBA (SANTA BARBARA , CA, US) observed 1553 UTC 18 April 2019
Temperature: 15.6°C (60°F)
Dewpoint: 11.7°C (53°F) [RH = 78%]
Pressure (altimeter): 30.12 inches Hg (1020.1 mb)
[Sea-level pressure: 1019.9 mb]
Winds: from the SE (140 degrees) at 3 MPH (3 knots; 1.5 m/s)
Visibility: 10 or more miles (16+ km)
Ceiling: at least 12,000 feet AGL
Clouds: sky clear below 12,000 feet AGL
Weather: no significant weather observed at this time

METAR text: KSBA 181453Z 00000KT 10SM BKN200 15/11 A3010 RMK AO2 SLP192 T01500111 53008
Conditions at: KSBA (SANTA BARBARA , CA, US) observed 1453 UTC 18 April 2019
Temperature: 15.0°C (59°F)
Dewpoint: 11.1°C (52°F) [RH = 77%]
Pressure (altimeter): 30.10 inches Hg (1019.4 mb)
[Sea-level pressure: 1019.2 mb]
Winds: calm
Visibility: 10 or more miles (16+ km)
Ceiling: 20000 feet AGL
Clouds: broken clouds at 20000 feet AGL
Weather: no significant weather observed at this time

METAR text: KSBA 181353Z 06003KT 10SM CLR 11/10 A3009 RMK AO2 SLP187 T01110100
Conditions at: KSBA (SANTA BARBARA , CA, US) observed 1353 UTC 18 April 2019
Temperature: 11.1°C (52°F)
Dewpoint: 10.0°C (50°F) [RH = 93%]
Pressure (altimeter): 30.09 inches Hg (1019.0 mb)
[Sea-level pressure: 1018.7 mb]
Winds: from the ENE (60 degrees) at 3 MPH (3 knots; 1.5 m/s)
Visibility: 10 or more miles (16+ km)
Ceiling: at least 12,000 feet AGL
Clouds: sky clear below 12,000 feet AGL
Weather: no significant weather observed at this time

METAR text: KSBA 181253Z 07003KT 9SM CLR 11/10 A3007 RMK AO2 SLP181 T01110100
Conditions at: KSBA (SANTA BARBARA , CA, US) observed 1253 UTC 18 April 2019
Temperature: 11.1°C (52°F)
Dewpoint: 10.0°C (50°F) [RH = 93%]
Pressure (altimeter): 30.07 inches Hg (1018.4 mb)
[Sea-level pressure: 1018.1 mb]
Winds: from the ENE (70 degrees) at 3 MPH (3 knots; 1.5 m/s)
Visibility: 9 miles (14 km)
Ceiling: at least 12,000 feet AGL
Clouds: sky clear below 12,000 feet AGL
Weather: no significant weather observed at this time

METAR text: KSBA 181218Z AUTO 07004KT 10SM SCT005 11/09 A3007 RMK AO2 T01110094
Conditions at: KSBA (SANTA BARBARA , CA, US) observed 1218 UTC 18 April 2019
Temperature: 11.1°C (52°F)
Dewpoint: 9.4°C (49°F) [RH = 89%]
Pressure (altimeter): 30.07 inches Hg (1018.4 mb)
Winds: from the ENE (70 degrees) at 5 MPH (4 knots; 2.1 m/s)
Visibility: 10 or more miles (16+ km)
Ceiling: at least 12,000 feet AGL
Clouds: scattered clouds at 500 feet AGL
Weather: automated observation with no human augmentation;
there may or may not be significant weather present at this time

METAR text: KSBA 181153Z AUTO 03005KT 10SM OVC005 12/11 A3007 RMK AO2 SLP184 T01170106 10139 20111 55007
Conditions at: KSBA (SANTA BARBARA , CA, US) observed 1153 UTC 18 April 2019
Temperature: 11.7°C (53°F)
Dewpoint: 10.6°C (51°F) [RH = 93%]
Pressure (altimeter): 30.07 inches Hg (1018.4 mb)
[Sea-level pressure: 1018.4 mb]
Winds: from the NNE (30 degrees) at 6 MPH (5 knots; 2.6 m/s)
Visibility: 10 or more miles (16+ km)
Ceiling: 500 feet AGL
Clouds: overcast cloud deck at 500 feet AGL
Weather: automated observation with no human augmentation;
there may or may not be significant weather present at this time

METAR text: KSBA 181141Z AUTO 01004KT 10SM OVC005 12/10 A3008 RMK AO2 T01170100
Conditions at: KSBA (SANTA BARBARA , CA, US) observed 1141 UTC 18 April 2019
Temperature: 11.7°C (53°F)
Dewpoint: 10.0°C (50°F) [RH = 89%]
Pressure (altimeter): 30.08 inches Hg (1018.7 mb)
Winds: from the N (10 degrees) at 5 MPH (4 knots; 2.1 m/s)
Visibility: 10 or more miles (16+ km)
Ceiling: 500 feet AGL
Clouds: overcast cloud deck at 500 feet AGL
Weather: automated observation with no human augmentation;
there may or may not be significant weather present at this time

METAR text: KSBA 181121Z AUTO 01003KT 9SM BKN004 12/10 A3007 RMK AO2 T01170100
Conditions at: KSBA (SANTA BARBARA , CA, US) observed 1121 UTC 18 April 2019
Temperature: 11.7°C (53°F)
Dewpoint: 10.0°C (50°F) [RH = 89%]
Pressure (altimeter): 30.07 inches Hg (1018.4 mb)
Winds: from the N (10 degrees) at 3 MPH (3 knots; 1.5 m/s)
Visibility: 9 miles (14 km)
Ceiling: 400 feet AGL
Clouds: broken clouds at 400 feet AGL
Weather: automated observation with no human augmentation;
there may or may not be significant weather present at this time

METAR text: KSBA 181107Z AUTO 06003KT 9SM FEW004 11/10 A3007 RMK AO2 T01110100
Conditions at: KSBA (SANTA BARBARA , CA, US) observed 1107 UTC 18 April 2019
Temperature: 11.1°C (52°F)
Dewpoint: 10.0°C (50°F) [RH = 93%]
Pressure (altimeter): 30.07 inches Hg (1018.4 mb)
Winds: from the ENE (60 degrees) at 3 MPH (3 knots; 1.5 m/s)
Visibility: 9 miles (14 km)
Ceiling: at least 12,000 feet AGL
Clouds: few clouds at 400 feet AGL
Weather: automated observation with no human augmentation;
there may or may not be significant weather present at this time

METAR text: KSBA 181053Z AUTO 10003KT 10SM CLR 12/11 A3007 RMK AO2 SLP181 T01170106
Conditions at: KSBA (SANTA BARBARA , CA, US) observed 1053 UTC 18 April 2019
Temperature: 11.7°C (53°F)
Dewpoint: 10.6°C (51°F) [RH = 93%]
Pressure (altimeter): 30.07 inches Hg (1018.4 mb)
[Sea-level pressure: 1018.1 mb]
Winds: from the E (100 degrees) at 3 MPH (3 knots; 1.5 m/s)
Visibility: 10 or more miles (16+ km)
Ceiling: at least 12,000 feet AGL
Clouds: sky clear below 12,000 feet AGL
Weather: automated observation with no human augmentation;
there may or may not be significant weather present at this time

METAR text: KSBA 181032Z AUTO 08003KT 10SM SCT004 12/09 A3007 RMK AO2 T01170094
Conditions at: KSBA (SANTA BARBARA , CA, US) observed 1032 UTC 18 April 2019
Temperature: 11.7°C (53°F)
Dewpoint: 9.4°C (49°F) [RH = 86%]
Pressure (altimeter): 30.07 inches Hg (1018.4 mb)
Winds: from the E (80 degrees) at 3 MPH (3 knots; 1.5 m/s)
Visibility: 10 or more miles (16+ km)
Ceiling: at least 12,000 feet AGL
Clouds: scattered clouds at 400 feet AGL
Weather: automated observation with no human augmentation;
there may or may not be significant weather present at this time

METAR text: KSBA 181006Z AUTO 05004KT 7SM BKN004 13/12 A3009 RMK AO2 T01280117
Conditions at: KSBA (SANTA BARBARA , CA, US) observed 1006 UTC 18 April 2019
Temperature: 12.8°C (55°F)
Dewpoint: 11.7°C (53°F) [RH = 93%]
Pressure (altimeter): 30.09 inches Hg (1019.0 mb)
Winds: from the NE (50 degrees) at 5 MPH (4 knots; 2.1 m/s)
Visibility: 7 miles (11 km)
Ceiling: 400 feet AGL
Clouds: broken clouds at 400 feet AGL
Weather: automated observation with no human augmentation;
there may or may not be significant weather present at this time

METAR text: KSBA 180953Z AUTO 11005KT 7SM FEW004 13/12 A3009 RMK AO2 SLP189 T01330122
Conditions at: KSBA (SANTA BARBARA , CA, US) observed 0953 UTC 18 April 2019
Temperature: 13.3°C (56°F)
Dewpoint: 12.2°C (54°F) [RH = 93%]
Pressure (altimeter): 30.09 inches Hg (1019.0 mb)
[Sea-level pressure: 1018.9 mb]
Winds: from the ESE (110 degrees) at 6 MPH (5 knots; 2.6 m/s)
Visibility: 7 miles (11 km)
Ceiling: at least 12,000 feet AGL
Clouds: few clouds at 400 feet AGL
Weather: automated observation with no human augmentation;
there may or may not be significant weather present at this time

METAR text: KSBA 180853Z AUTO 11005KT 7SM CLR 13/12 A3009 RMK AO2 SLP190 T01330122 50003
Conditions at: KSBA (SANTA BARBARA , CA, US) observed 0853 UTC 18 April 2019
Temperature: 13.3°C (56°F)
Dewpoint: 12.2°C (54°F) [RH = 93%]
Pressure (altimeter): 30.09 inches Hg (1019.0 mb)
[Sea-level pressure: 1019.0 mb]
Winds: from the ESE (110 degrees) at 6 MPH (5 knots; 2.6 m/s)
Visibility: 7 miles (11 km)
Ceiling: at least 12,000 feet AGL
Clouds: sky clear below 12,000 feet AGL
Weather: automated observation with no human augmentation;
there may or may not be significant weather present at this time

METAR text: KSBA 180753Z AUTO 04004KT 10SM CLR 13/11 A3010 RMK AO2 SLP192 T01330111 402110072
Conditions at: KSBA (SANTA BARBARA , CA, US) observed 0753 UTC 18 April 2019
Temperature: 13.3°C (56°F)
Dewpoint: 11.1°C (52°F) [RH = 87%]
Pressure (altimeter): 30.10 inches Hg (1019.4 mb)
[Sea-level pressure: 1019.2 mb]
Winds: from the NE (40 degrees) at 5 MPH (4 knots; 2.1 m/s)
Visibility: 10 or more miles (16+ km)
Ceiling: at least 12,000 feet AGL
Clouds: sky clear below 12,000 feet AGL
Weather: automated observation with no human augmentation;
there may or may not be significant weather present at this time

METAR text: KSBA 180653Z AUTO 00000KT 9SM CLR 13/11 A3010 RMK AO2 SLP192 T01280111
Conditions at: KSBA (SANTA BARBARA , CA, US) observed 0653 UTC 18 April 2019
Temperature: 12.8°C (55°F)
Dewpoint: 11.1°C (52°F) [RH = 89%]
Pressure (altimeter): 30.10 inches Hg (1019.4 mb)
[Sea-level pressure: 1019.2 mb]
Winds: calm
Visibility: 9 miles (14 km)
Ceiling: at least 12,000 feet AGL
Clouds: sky clear below 12,000 feet AGL
Weather: automated observation with no human augmentation;
there may or may not be significant weather present at this time

METAR text: KSBA 180553Z AUTO 09004KT 10SM CLR 14/12 A3009 RMK AO2 SLP188 T01390117 10211 20122 53004
Conditions at: KSBA (SANTA BARBARA , CA, US) observed 0553 UTC 18 April 2019
Temperature: 13.9°C (57°F)
Dewpoint: 11.7°C (53°F) [RH = 87%]
Pressure (altimeter): 30.09 inches Hg (1019.0 mb)
[Sea-level pressure: 1018.8 mb]
Winds: from the E (90 degrees) at 5 MPH (4 knots; 2.1 m/s)
Visibility: 10 or more miles (16+ km)
Ceiling: at least 12,000 feet AGL
Clouds: sky clear below 12,000 feet AGL
Weather: automated observation with no human augmentation;
there may or may not be significant weather present at this time

METAR text: KSBA 180453Z 10004KT 10SM CLR 14/12 A3008 RMK AO2 SLP186 T01390122
Conditions at: KSBA (SANTA BARBARA , CA, US) observed 0453 UTC 18 April 2019
Temperature: 13.9°C (57°F)
Dewpoint: 12.2°C (54°F) [RH = 89%]
Pressure (altimeter): 30.08 inches Hg (1018.7 mb)
[Sea-level pressure: 1018.6 mb]
Winds: from the E (100 degrees) at 5 MPH (4 knots; 2.1 m/s)
Visibility: 10 or more miles (16+ km)
Ceiling: at least 12,000 feet AGL
Clouds: sky clear below 12,000 feet AGL
Weather: no significant weather observed at this time

METAR text: KSBA 180353Z 00000KT 10SM CLR 14/12 A3007 RMK AO2 SLP182 T01390117
Conditions at: KSBA (SANTA BARBARA , CA, US) observed 0353 UTC 18 April 2019
Temperature: 13.9°C (57°F)
Dewpoint: 11.7°C (53°F) [RH = 87%]
Pressure (altimeter): 30.07 inches Hg (1018.4 mb)
[Sea-level pressure: 1018.2 mb]
Winds: calm
Visibility: 10 or more miles (16+ km)
Ceiling: at least 12,000 feet AGL
Clouds: sky clear below 12,000 feet AGL
Weather: no significant weather observed at this time

METAR text: KSBA 180253Z 00000KT 10SM CLR 15/09 A3007 RMK AO2 SLP183 T01500094 58005
Conditions at: KSBA (SANTA BARBARA , CA, US) observed 0253 UTC 18 April 2019
Temperature: 15.0°C (59°F)
Dewpoint: 9.4°C (49°F) [RH = 69%]
Pressure (altimeter): 30.07 inches Hg (1018.4 mb)
[Sea-level pressure: 1018.3 mb]
Winds: calm
Visibility: 10 or more miles (16+ km)
Ceiling: at least 12,000 feet AGL
Clouds: sky clear below 12,000 feet AGL
Weather: no significant weather observed at this time

METAR text: KSBA 180153Z 26004KT 10SM CLR 16/11 A3010 RMK AO2 SLP192 T01610106
Conditions at: KSBA (SANTA BARBARA , CA, US) observed 0153 UTC 18 April 2019
Temperature: 16.1°C (61°F)
Dewpoint: 10.6°C (51°F) [RH = 70%]
Pressure (altimeter): 30.10 inches Hg (1019.4 mb)
[Sea-level pressure: 1019.2 mb]
Winds: from the W (260 degrees) at 5 MPH (4 knots; 2.1 m/s)
Visibility: 10 or more miles (16+ km)
Ceiling: at least 12,000 feet AGL
Clouds: sky clear below 12,000 feet AGL
Weather: no significant weather observed at this time

METAR text: KSBA 180053Z 23011KT 10SM CLR 17/12 A3009 RMK AO2 SLP189 T01720117
Conditions at: KSBA (SANTA BARBARA , CA, US) observed 0053 UTC 18 April 2019
Temperature: 17.2°C (63°F)
Dewpoint: 11.7°C (53°F) [RH = 70%]
Pressure (altimeter): 30.09 inches Hg (1019.0 mb)
[Sea-level pressure: 1018.9 mb]
Winds: from the SW (230 degrees) at 13 MPH (11 knots; 5.7 m/s)
Visibility: 10 or more miles (16+ km)
Ceiling: at least 12,000 feet AGL
Clouds: sky clear below 12,000 feet AGL
Weather: no significant weather observed at this time

METAR text: KSBA 172353Z 26007KT 10SM CLR 21/07 A3009 RMK AO2 SLP189 T02060072 10206 20167 58018
Conditions at: KSBA (SANTA BARBARA , CA, US) observed 2353 UTC 17 April 2019
Temperature: 20.6°C (69°F)
Dewpoint: 7.2°C (45°F) [RH = 42%]
Pressure (altimeter): 30.09 inches Hg (1019.0 mb)
[Sea-level pressure: 1018.9 mb]
Winds: from the W (260 degrees) at 8 MPH (7 knots; 3.6 m/s)
Visibility: 10 or more miles (16+ km)
Ceiling: at least 12,000 feet AGL
Clouds: sky clear below 12,000 feet AGL
Weather: no significant weather observed at this time

METAR text: KSBA 172253Z 25010KT 10SM CLR 19/11 A3011 RMK AO2 SLP197 T01890106
Conditions at: KSBA (SANTA BARBARA , CA, US) observed 2253 UTC 17 April 2019
Temperature: 18.9°C (66°F)
Dewpoint: 10.6°C (51°F) [RH = 59%]
Pressure (altimeter): 30.11 inches Hg (1019.7 mb)
[Sea-level pressure: 1019.7 mb]
Winds: from the WSW (250 degrees) at 12 MPH (10 knots; 5.1 m/s)
Visibility: 10 or more miles (16+ km)
Ceiling: at least 12,000 feet AGL
Clouds: sky clear below 12,000 feet AGL
Weather: no significant weather observed at this time

METAR text: KSBA 172153Z 25009KT 10SM CLR 19/11 A3014 RMK AO2 SLP205 T01890106
Conditions at: KSBA (SANTA BARBARA , CA, US) observed 2153 UTC 17 April 2019
Temperature: 18.9°C (66°F)
Dewpoint: 10.6°C (51°F) [RH = 59%]
Pressure (altimeter): 30.14 inches Hg (1020.7 mb)
[Sea-level pressure: 1020.5 mb]
Winds: from the WSW (250 degrees) at 10 MPH (9 knots; 4.6 m/s)
Visibility: 10 or more miles (16+ km)
Ceiling: at least 12,000 feet AGL
Clouds: sky clear below 12,000 feet AGL
Weather: no significant weather observed at this time

Forecast for: KSBA (SANTA BARBARA , CA, US)
Text: KSBA 190908Z 1909/2006 14005KT 3SM BR VV002
Forecast period: 0900 to 1100 UTC 19 April 2019
Forecast type: FROM: standard forecast or significant change
Winds: from the SE (140 degrees) at 6 MPH (5 knots; 2.6 m/s)
Visibility: 3 miles (5 km)
Ceiling: indefinite ceiling with vertical visibility of 200 feet AGL
Clouds: obscured sky
Weather: BR  (mist)
Text: FM191100 VRB03KT 1/2SM FG VV002
Forecast period: 1100 to 1500 UTC 19 April 2019
Forecast type: FROM: standard forecast or significant change
Winds: variable direction winds at 3 MPH (3 knots; 1.5 m/s)
Visibility: 0.50 miles (0.80 km)
Ceiling: indefinite ceiling with vertical visibility of 200 feet AGL
Clouds: obscured sky
Weather: FG  (fog)
Text: FM191500 VRB03KT P6SM OVC008
Forecast period: 1500 to 1800 UTC 19 April 2019
Forecast type: FROM: standard forecast or significant change
Winds: variable direction winds at 3 MPH (3 knots; 1.5 m/s)
Visibility: 6 or more miles 10+ km)
Ceiling: 800 feet AGL
Clouds: overcast cloud deck at 800 feet AGL
Weather: no significant weather forecast for this period
Text: FM191800 VRB03KT P6SM SCT250
Forecast period: 1800 to 2000 UTC 19 April 2019
Forecast type: FROM: standard forecast or significant change
Winds: variable direction winds at 3 MPH (3 knots; 1.5 m/s)
Visibility: 6 or more miles 10+ km)
Ceiling: at least 12,000 feet AGL
Clouds: scattered clouds at 25000 feet AGL
Weather: no significant weather forecast for this period
Text: FM192000 31010KT P6SM SCT250
Forecast period: 2000 UTC 19 April 2019 to 0300 UTC 20 April 2019
Forecast type: FROM: standard forecast or significant change
Winds: from the NW (310 degrees) at 12 MPH (10 knots; 5.1 m/s)
Visibility: 6 or more miles 10+ km)
Ceiling: at least 12,000 feet AGL
Clouds: scattered clouds at 25000 feet AGL
Weather: no significant weather forecast for this period
Text: FM200300 VRB03KT P6SM OVC015
Forecast period: 0300 to 0600 UTC 20 April 2019
Forecast type: FROM: standard forecast or significant change
Winds: variable direction winds at 3 MPH (3 knots; 1.5 m/s)
Visibility: 6 or more miles 10+ km)
Ceiling: 1500 feet AGL
Clouds: overcast cloud deck at 1500 feet AGL
Weather: no significant weather forecast for this period